New API airportDetails.aspx request

airportDetails.aspx
Parameters: apikey, sessionid, icao

My goal is to be able to access airport details such as ATIS and runways easier. If you notice ATIS is broken out to identify departure and arrival runways.

{
icao:KSAT,
name:San Antonio International,
metar:KSAT 031803Z 01008KT 10SM - RA BKN006 BKN075 OVC100 13/11 A3001 RMK AO2 P0001 T01280111 $,
ATIS_text: "San Antonio Airport, ATIS information ALPHA, time 1909 ZULU, Wind 010 at 8 Visibility 10, Temperature 12, Dew Point 11, Altimeter 3001. Remarks, no light aircraft accepted at this time. Landing runways 31L and 4. Departing runways 31L and 4",
ATIS:
	{
		dep_rwy:{31L,04},
		arr_rwy:{31L,04},
		notam: Event in progress,
		remarks: No light aircraft
	},
Runways: {
			{rwy:22/04,length:8516,width:150},
			{rwy:13R/31L,length:8507,width:150}
		}
}
11 Likes